Braytown, Indiana
Current Conditions -  °F | °C
As of 6:52 PM on Monday 24 Nov 2014 (Local Time) from KCVG Reporting Station
Few Clouds Few Clouds  
Wind Chill: 37°   Ceiling: Unl
Heat Index: 43°   Visibility: 10mi
Dew Point: 31°   Wind: 12mph
Humidity: 62%   Direction: 240°WSW
Pressure: 29.82"   Gusts: 17mph
Location:  38.7865°N, 85.1073°W
Report Text: KCVG 242352Z 24010G15KT 10SM FEW030 06/M01 A2982 RMK AO2 SLP097 T00611006 10083 20061 53035
Loading
Personal Weather Stations






























Interactive Weather Map New forecast layout! Learn more

10-Day Weather Forecast

Advertisements
Track Severe Weather on mobile